CheckWX is a tool to help pilots better visualize weather data.  It is not intended as a substitute for an official pre-flight weather briefing.

07:44:45 UTC

CYRA METAR
Rae Lakes Airport
Gamètì, Canada
Current

8 hours ago

CYRA 210000Z 03009KT 15SM SKC 15/02 A2996 RMK DIST FU LAST STFD OBS/NEXT 211400 UTC SLP157 DENSITY ALT 900FT
Observed
May-21 @ 00:00 UTC
Wind
  • 030° at 9 KTS
Visibility
15 SM
Flight Rules
VFR
Cloud Levels
  • Clear skies
Temperature
15°C / 59°F
Dewpoint
C / 36°F
Humidity
42%
Altimeter
29.96" Hg
Pressure
1014.52 hPa
Previous

9 hours ago

CYRA 202300Z 03010KT 15SM SKC 17/02 A2994 RMK DIST FU SLP151 DENSITY ALT 1100FT
Observed
May-20 @ 23:00 UTC
Wind
  • 030° at 10 KTS
Visibility
15 SM
Flight Rules
VFR
Cloud Levels
  • Clear skies
Temperature
17°C / 63°F
Dewpoint
C / 36°F
Humidity
37%
Altimeter
29.94" Hg
Pressure
1013.92 hPa
Previous

10 hours ago

CYRA 202200Z 34010KT 15SM SKC 16/03 A2993 RMK DIST FU SLP145 DENSITY ALT 1000FT
Observed
May-20 @ 22:00 UTC
Wind
  • 340° at 10 KTS
Visibility
15 SM
Flight Rules
VFR
Cloud Levels
  • Clear skies
Temperature
16°C / 61°F
Dewpoint
C / 37°F
Humidity
42%
Altimeter
29.93" Hg
Pressure
1013.52 hPa